createdAt,value
2023-05-09T00:01:19.897Z,52.53
2023-05-09T00:03:52.387Z,52.63
2023-05-09T00:06:27.367Z,51.67
2023-05-09T00:11:31.504Z,51.30
2023-05-09T00:14:03.987Z,50.90
2023-05-09T00:16:39.149Z,48.47
2023-05-09T00:19:14.426Z,51.10
2023-05-09T00:21:46.234Z,50.20
2023-05-09T00:24:19.571Z,50.00
2023-05-09T00:26:51.098Z,49.53
2023-05-09T00:29:20.451Z,50.47
2023-05-09T00:31:56.960Z,49.65
2023-05-09T00:34:27.116Z,47.40
2023-05-09T00:37:01.922Z,47.85
2023-05-09T00:39:33.802Z,46.58
2023-05-09T00:42:06.713Z,46.65
2023-05-09T00:44:38.653Z,45.47
2023-05-09T00:47:10.028Z,47.10
2023-05-09T00:49:41.695Z,44.95
2023-05-09T00:52:18.115Z,45.25
2023-05-09T00:54:55.226Z,45.33
2023-05-09T00:57:27.206Z,45.95
2023-05-09T00:59:59.688Z,46.75
2023-05-09T01:02:32.694Z,46.35
2023-05-09T01:05:07.476Z,47.80
2023-05-09T01:07:57.231Z,47.38
2023-05-09T01:10:38.987Z,45.63
2023-05-09T01:13:25.057Z,46.50
2023-05-09T01:16:02.770Z,46.67
2023-05-09T01:18:46.499Z,47.08
2023-05-09T01:21:22.575Z,45.95
2023-05-09T01:24:38.944Z,47.00
2023-05-09T01:27:32.630Z,46.20
2023-05-09T01:30:07.254Z,48.00
2023-05-09T01:32:39.632Z,47.60
2023-05-09T01:35:17.389Z,48.67
2023-05-09T01:37:53.167Z,47.80
2023-05-09T01:40:25.352Z,50.78
2023-05-09T01:43:02.949Z,48.85
2023-05-09T01:45:37.146Z,50.10
2023-05-09T01:48:10.890Z,50.15
2023-05-09T01:50:42.438Z,48.65
2023-05-09T01:53:16.130Z,49.08
2023-05-09T01:55:50.105Z,50.92
2023-05-09T01:58:25.671Z,51.05
2023-05-09T02:01:01.331Z,49.45
2023-05-09T02:03:34.286Z,48.40
2023-05-09T02:06:07.505Z,48.42
2023-05-09T02:08:38.509Z,49.90
2023-05-09T02:11:10.226Z,49.95
2023-05-09T02:13:54.204Z,48.83
2023-05-09T02:16:28.418Z,49.60
2023-05-09T02:18:59.065Z,49.63
2023-05-09T02:21:32.152Z,52.10
2023-05-09T02:24:04.195Z,49.95
2023-05-09T02:26:34.654Z,50.65
2023-05-09T02:29:07.810Z,49.58
2023-05-09T02:31:43.089Z,48.60
2023-05-09T02:34:15.737Z,49.22
2023-05-09T02:36:47.551Z,50.15
2023-05-09T02:39:18.219Z,50.45
2023-05-09T02:41:53.354Z,48.83
2023-05-09T02:44:23.543Z,49.28
2023-05-09T02:46:58.439Z,48.92
2023-05-09T02:49:32.709Z,50.85
2023-05-09T02:52:06.098Z,48.13
2023-05-09T02:54:37.432Z,49.95
2023-05-09T02:57:06.273Z,50.10
2023-05-09T02:59:34.454Z,48.63
2023-05-09T03:02:03.959Z,47.28
2023-05-09T03:04:32.099Z,45.90
2023-05-09T03:07:00.294Z,46.97
2023-05-09T03:09:28.561Z,46.75
2023-05-09T03:11:57.406Z,46.75
2023-05-09T03:14:25.958Z,45.58
2023-05-09T03:16:54.077Z,44.78
2023-05-09T03:19:26.155Z,45.85
2023-05-09T03:21:54.429Z,47.72
2023-05-09T03:24:25.567Z,44.75
2023-05-09T03:26:53.806Z,44.83
2023-05-09T03:29:22.189Z,45.35
2023-05-09T03:31:50.698Z,45.35
2023-05-09T03:34:19.527Z,45.03
2023-05-09T03:36:49.309Z,44.80
2023-05-09T03:39:17.630Z,43.15
2023-05-09T03:41:45.984Z,45.28
2023-05-09T03:44:14.332Z,43.40
2023-05-09T03:46:42.729Z,44.85
2023-05-09T03:49:10.964Z,45.10
2023-05-09T03:51:41.899Z,44.13
2023-05-09T03:54:12.352Z,44.08
2023-05-09T03:56:40.530Z,43.72
2023-05-09T03:59:12.000Z,44.45
2023-05-09T04:01:41.062Z,42.75
2023-05-09T04:04:09.539Z,43.25
2023-05-09T04:06:38.395Z,41.28
2023-05-09T04:09:08.370Z,41.88
2023-05-09T04:11:43.314Z,42.17
2023-05-09T04:14:11.637Z,41.80
2023-05-09T04:16:40.983Z,42.15
2023-05-09T04:19:12.168Z,41.30
2023-05-09T04:21:42.076Z,41.38
2023-05-09T04:24:10.828Z,41.13
2023-05-09T04:26:40.981Z,39.03
2023-05-09T04:29:15.890Z,39.67
2023-05-09T04:31:44.861Z,38.92
2023-05-09T04:34:16.992Z,37.97
2023-05-09T04:36:48.156Z,37.08
2023-05-09T04:39:18.992Z,37.13
2023-05-09T04:41:49.905Z,37.70
2023-05-09T04:44:19.399Z,35.85
2023-05-09T04:46:47.837Z,37.20
2023-05-09T04:49:16.878Z,34.75
2023-05-09T04:51:47.748Z,34.50
2023-05-09T04:54:16.142Z,33.65
2023-05-09T04:56:44.395Z,32.92
2023-05-09T04:59:14.088Z,32.90
2023-05-09T05:01:42.690Z,32.38
2023-05-09T05:04:13.250Z,31.85
2023-05-09T05:06:41.517Z,30.50
2023-05-09T05:09:10.145Z,29.63
2023-05-09T05:11:38.385Z,30.38
2023-05-09T05:14:09.801Z,29.55
2023-05-09T05:16:39.721Z,28.80
2023-05-09T05:19:08.044Z,28.63
2023-05-09T05:21:39.380Z,28.27
2023-05-09T05:24:07.639Z,28.38
2023-05-09T05:26:36.342Z,28.15
2023-05-09T05:29:04.438Z,29.67
2023-05-09T05:31:32.586Z,27.60
2023-05-09T05:34:02.238Z,27.50
2023-05-09T05:36:31.615Z,27.42
2023-05-09T05:38:59.788Z,25.90
2023-05-09T05:41:27.946Z,26.35
2023-05-09T05:43:56.064Z,25.15
2023-05-09T05:46:24.529Z,25.88
2023-05-09T05:48:52.837Z,25.10
2023-05-09T05:51:22.496Z,26.73
2023-05-09T05:53:50.700Z,24.33
2023-05-09T05:56:19.256Z,25.02
2023-05-09T05:58:47.386Z,25.77
2023-05-09T06:01:15.695Z,24.90
2023-05-09T06:03:46.948Z,24.63
2023-05-09T06:06:15.319Z,24.55
2023-05-09T06:08:45.054Z,23.00
2023-05-09T06:11:13.574Z,23.08
2023-05-09T06:13:41.910Z,23.55
2023-05-09T06:18:41.565Z,22.80
2023-05-09T06:21:09.710Z,23.90
2023-05-09T06:23:40.478Z,24.25
2023-05-09T06:26:15.117Z,23.40
2023-05-09T06:28:43.175Z,22.70
2023-05-09T06:31:11.542Z,23.08
2023-05-09T06:33:39.714Z,22.85
2023-05-09T06:36:08.600Z,24.75
2023-05-09T06:38:37.287Z,24.55
2023-05-09T06:41:05.863Z,24.58
2023-05-09T06:43:35.480Z,25.35
2023-05-09T06:46:04.553Z,25.52
2023-05-09T06:48:32.700Z,26.42
2023-05-09T06:51:01.115Z,25.90
2023-05-09T06:53:29.307Z,26.80
2023-05-09T06:55:57.542Z,27.45
2023-05-09T06:58:25.768Z,27.58
2023-05-09T07:00:55.989Z,27.90
2023-05-09T07:03:24.376Z,28.00
2023-05-09T07:05:52.957Z,27.92
2023-05-09T07:08:21.205Z,29.70
2023-05-09T07:10:49.456Z,28.25
2023-05-09T07:13:17.849Z,28.63
2023-05-09T07:15:46.310Z,29.08
2023-05-09T07:18:17.398Z,28.73
2023-05-09T07:20:46.610Z,27.65
2023-05-09T07:23:14.864Z,27.33
2023-05-09T07:25:43.927Z,29.02
2023-05-09T07:28:12.765Z,27.92
2023-05-09T07:30:41.028Z,28.30
2023-05-09T07:33:09.240Z,27.58
2023-05-09T07:35:39.008Z,26.60
2023-05-09T07:38:07.509Z,25.60
2023-05-09T07:40:36.596Z,27.00
2023-05-09T07:43:05.037Z,28.20
2023-05-09T07:45:33.690Z,28.02
2023-05-09T07:48:01.999Z,26.33
2023-05-09T07:50:30.450Z,25.60
2023-05-09T07:53:01.055Z,25.45
2023-05-09T07:55:29.692Z,26.58
2023-05-09T07:57:58.151Z,26.33
2023-05-09T08:00:26.717Z,26.52
2023-05-09T08:02:55.527Z,24.75
2023-05-09T08:05:23.881Z,24.70
2023-05-09T08:07:52.244Z,25.80
2023-05-09T08:10:43.182Z,24.98
2023-05-09T08:13:12.557Z,24.40
2023-05-09T08:15:41.139Z,24.77
2023-05-09T08:18:09.686Z,24.52
2023-05-09T08:20:37.989Z,25.35
2023-05-09T08:23:06.350Z,24.60
2023-05-09T08:25:36.203Z,25.38
2023-05-09T08:28:05.013Z,23.98
2023-05-09T08:30:33.479Z,23.27
2023-05-09T08:33:01.851Z,23.60
2023-05-09T08:35:30.486Z,23.25
2023-05-09T08:37:59.241Z,22.33
2023-05-09T08:40:27.843Z,22.67
2023-05-09T08:42:59.408Z,20.90
2023-05-09T08:45:30.743Z,21.08
2023-05-09T08:47:59.913Z,20.60
2023-05-09T08:50:28.346Z,20.02
2023-05-09T08:52:57.746Z,19.73
2023-05-09T08:55:27.649Z,18.33
2023-05-09T08:57:59.891Z,18.63
2023-05-09T09:00:28.964Z,18.50
2023-05-09T09:02:59.706Z,18.48
2023-05-09T09:08:07.562Z,16.77
2023-05-09T09:13:32.853Z,17.25
2023-05-09T09:16:02.814Z,17.17
2023-05-09T09:18:34.736Z,16.27
2023-05-09T09:21:07.441Z,15.38
2023-05-09T09:23:36.040Z,15.68
2023-05-09T09:26:05.271Z,15.80
2023-05-09T09:28:35.224Z,16.15
2023-05-09T09:31:03.689Z,15.10
2023-05-09T09:33:32.093Z,14.75
2023-05-09T09:36:00.327Z,12.88
2023-05-09T09:38:31.199Z,13.88
2023-05-09T09:41:00.335Z,12.65
2023-05-09T09:43:30.104Z,12.35
2023-05-09T09:46:02.802Z,11.75
2023-05-09T09:48:35.041Z,12.73
2023-05-09T09:51:11.393Z,13.07
2023-05-09T09:53:44.436Z,13.10
2023-05-09T09:56:14.344Z,12.50
2023-05-09T09:58:42.672Z,11.50
2023-05-09T10:01:14.415Z,11.20
2023-05-09T10:03:45.030Z,11.57
2023-05-09T10:06:19.491Z,11.77
2023-05-09T10:08:49.233Z,11.38
2023-05-09T10:11:21.391Z,11.52
2023-05-09T10:13:50.468Z,11.63
2023-05-09T10:16:28.554Z,11.60
2023-05-09T10:19:16.350Z,12.38
2023-05-09T10:21:45.897Z,13.48
2023-05-09T10:24:14.753Z,12.27
2023-05-09T10:26:50.970Z,12.15
2023-05-09T10:29:24.887Z,12.25
2023-05-09T10:32:00.308Z,11.45
2023-05-09T10:37:00.512Z,11.10
2023-05-09T10:39:31.117Z,10.57
2023-05-09T10:42:01.881Z,11.02
2023-05-09T10:44:33.958Z,10.85
2023-05-09T10:47:07.296Z,11.05
2023-05-09T10:49:37.292Z,11.50
2023-05-09T10:52:07.542Z,11.65
2023-05-09T10:54:38.402Z,11.20
2023-05-09T10:57:10.137Z,10.40
2023-05-09T10:59:41.650Z,10.65
2023-05-09T11:02:17.095Z,10.73
2023-05-09T11:07:30.075Z,10.63
2023-05-09T11:10:09.938Z,10.68
2023-05-09T11:12:57.515Z,10.50
2023-05-09T11:15:27.735Z,9.30
2023-05-09T11:18:09.423Z,9.73
2023-05-09T11:20:44.058Z,10.02
2023-05-09T11:23:12.923Z,9.93
2023-05-09T11:25:41.740Z,9.88
2023-05-09T11:28:28.825Z,9.57
2023-05-09T11:31:11.268Z,10.15
2023-05-09T11:33:42.766Z,10.50
2023-05-09T11:36:29.829Z,10.80
2023-05-09T11:39:05.005Z,10.50
2023-05-09T11:41:40.635Z,9.80
2023-05-09T11:44:19.852Z,10.73
2023-05-09T11:46:49.554Z,10.25
2023-05-09T11:49:20.504Z,9.50
2023-05-09T11:51:49.210Z,10.38
2023-05-09T11:54:18.123Z,9.50
2023-05-09T11:56:46.804Z,9.95
2023-05-09T11:59:15.868Z,9.50
2023-05-09T12:01:44.364Z,10.40
2023-05-09T12:04:12.889Z,10.38
2023-05-09T12:06:48.564Z,10.57
2023-05-09T12:09:16.840Z,9.60
2023-05-09T12:11:50.325Z,10.30
2023-05-09T12:14:29.246Z,9.80
2023-05-09T12:16:57.840Z,9.85
2023-05-09T12:19:27.215Z,8.98
2023-05-09T12:22:01.797Z,10.48
2023-05-09T12:24:31.768Z,12.73
2023-05-09T12:27:01.366Z,9.73
2023-05-09T12:29:31.705Z,9.25
2023-05-09T12:32:01.048Z,8.77
2023-05-09T12:34:30.206Z,7.97
2023-05-09T12:37:03.773Z,8.35
2023-05-09T12:39:32.198Z,8.50
2023-05-09T12:42:02.316Z,8.52
2023-05-09T12:44:31.006Z,8.57
2023-05-09T12:47:02.096Z,8.38
2023-05-09T12:49:32.088Z,8.40
2023-05-09T12:52:04.450Z,8.05
2023-05-09T12:54:33.201Z,8.98
2023-05-09T12:57:02.068Z,8.55
2023-05-09T12:59:31.156Z,7.40
2023-05-09T13:02:01.895Z,8.30
2023-05-09T13:04:30.383Z,7.35
2023-05-09T13:07:01.568Z,7.93
2023-05-09T13:09:30.272Z,7.60
2023-05-09T13:11:58.611Z,8.48
2023-05-09T13:14:27.553Z,8.50
2023-05-09T13:16:56.034Z,8.73
2023-05-09T13:19:24.443Z,8.45
2023-05-09T13:21:53.929Z,8.38
2023-05-09T13:24:23.586Z,8.32
2023-05-09T13:26:51.975Z,8.35
2023-05-09T13:29:20.236Z,7.97
2023-05-09T13:31:48.604Z,8.25
2023-05-09T13:34:17.267Z,9.00
2023-05-09T13:36:45.856Z,9.43
2023-05-09T13:39:15.529Z,8.35
2023-05-09T13:41:46.182Z,8.82
2023-05-09T13:44:15.268Z,8.88
2023-05-09T13:46:43.645Z,8.43
2023-05-09T13:49:12.408Z,9.77
2023-05-09T13:51:40.984Z,9.70
2023-05-09T13:54:12.610Z,11.05
2023-05-09T13:56:40.863Z,10.02
2023-05-09T13:59:10.746Z,8.30
2023-05-09T14:01:39.075Z,8.30
2023-05-09T14:04:09.861Z,7.32
2023-05-09T14:06:38.217Z,7.30
2023-05-09T14:09:07.314Z,7.72
2023-05-09T14:11:35.839Z,6.60
2023-05-09T14:14:04.210Z,7.32
2023-05-09T14:16:34.340Z,7.13
2023-05-09T14:19:02.816Z,7.10
2023-05-09T14:21:31.847Z,6.85
2023-05-09T14:24:00.258Z,7.15
2023-05-09T14:26:29.045Z,6.53
2023-05-09T14:28:57.413Z,6.38
2023-05-09T14:31:25.703Z,6.82
2023-05-09T14:33:55.777Z,6.60
2023-05-09T14:36:24.473Z,6.82
2023-05-09T14:38:52.753Z,7.95
2023-05-09T14:41:24.224Z,6.50
2023-05-09T14:43:53.811Z,6.32
2023-05-09T14:46:25.832Z,5.80
2023-05-09T14:48:59.210Z,5.68
2023-05-09T14:51:30.660Z,5.35
2023-05-09T14:53:59.388Z,5.60
2023-05-09T14:56:28.250Z,4.97
2023-05-09T14:58:56.912Z,5.75
2023-05-09T15:01:25.428Z,5.35
2023-05-09T15:03:55.420Z,5.32
2023-05-09T15:06:24.073Z,5.15
2023-05-09T15:08:53.986Z,5.57
2023-05-09T15:11:24.068Z,5.50
2023-05-09T15:13:55.204Z,5.10
2023-05-09T15:16:23.603Z,5.30
2023-05-09T15:18:51.973Z,7.03
2023-05-09T15:21:21.847Z,5.47
2023-05-09T15:23:50.393Z,5.25
2023-05-09T15:26:19.202Z,5.47
2023-05-09T15:28:48.873Z,5.30
2023-05-09T15:31:31.430Z,5.30
2023-05-09T15:34:00.881Z,6.22
2023-05-09T15:36:32.154Z,5.65
2023-05-09T15:39:00.383Z,9.73
2023-05-09T15:41:29.041Z,6.75
2023-05-09T15:43:57.500Z,6.25
2023-05-09T15:46:25.885Z,6.70
2023-05-09T15:48:56.004Z,10.15
2023-05-09T15:51:24.678Z,7.97
2023-05-09T15:53:54.586Z,7.45
2023-05-09T15:56:23.112Z,8.27
2023-05-09T15:58:51.416Z,7.40
2023-05-09T16:01:19.784Z,6.88
2023-05-09T16:03:48.903Z,7.13
2023-05-09T16:06:21.032Z,8.00
2023-05-09T16:08:49.415Z,7.18
2023-05-09T16:11:22.779Z,8.55
2023-05-09T16:13:51.163Z,8.48
2023-05-09T16:16:19.477Z,8.48
2023-05-09T16:18:48.182Z,8.15
2023-05-09T16:21:16.532Z,8.98
2023-05-09T16:23:45.630Z,8.05
2023-05-09T16:26:14.125Z,9.15
2023-05-09T16:28:43.800Z,8.85
2023-05-09T16:31:12.135Z,9.13
2023-05-09T16:33:40.632Z,8.20
2023-05-09T16:36:09.630Z,8.27
2023-05-09T16:38:37.915Z,8.30
2023-05-09T16:41:06.111Z,9.43
2023-05-09T16:43:34.523Z,9.70
2023-05-09T16:46:04.985Z,8.50
2023-05-09T16:48:33.404Z,9.27
2023-05-09T16:51:01.615Z,8.35
2023-05-09T16:53:29.914Z,8.30
2023-05-09T16:55:58.499Z,8.55
2023-05-09T16:58:26.851Z,8.43
2023-05-09T17:00:55.304Z,8.93
2023-05-09T17:03:25.308Z,8.32
2023-05-09T17:05:55.955Z,8.55
2023-05-09T17:08:24.280Z,8.90
2023-05-09T17:10:52.538Z,8.93
2023-05-09T17:13:20.873Z,8.02
2023-05-09T17:15:52.493Z,7.85
2023-05-09T17:18:33.255Z,8.32
2023-05-09T17:21:07.813Z,8.30
2023-05-09T17:23:36.173Z,7.57
2023-05-09T17:26:04.837Z,8.10
2023-05-09T17:28:33.343Z,8.55
2023-05-09T17:31:03.212Z,8.07
2023-05-09T17:33:31.610Z,8.50
2023-05-09T17:36:00.762Z,8.98
2023-05-09T17:38:30.715Z,8.77
2023-05-09T17:40:59.549Z,7.68
2023-05-09T17:43:28.493Z,7.40
2023-05-09T17:45:56.911Z,7.47
2023-05-09T17:48:26.926Z,7.75
2023-05-09T17:50:55.914Z,7.28
2023-05-09T17:53:24.557Z,7.25
2023-05-09T17:55:54.427Z,7.13
2023-05-09T17:58:23.859Z,10.80
2023-05-09T18:00:55.117Z,8.18
2023-05-09T18:03:24.256Z,7.55
2023-05-09T18:05:52.869Z,7.72
2023-05-09T18:08:21.351Z,7.57
2023-05-09T18:10:49.822Z,7.78
2023-05-09T18:13:19.692Z,8.25
2023-05-09T18:15:48.292Z,8.85
2023-05-09T18:18:17.571Z,8.55
2023-05-09T18:20:47.116Z,7.93
2023-05-09T18:23:16.017Z,8.60
2023-05-09T18:25:44.295Z,8.60
2023-05-09T18:28:14.783Z,8.75
2023-05-09T18:30:48.189Z,9.63
2023-05-09T18:33:18.622Z,8.75
2023-05-09T18:35:47.097Z,8.30
2023-05-09T18:38:15.576Z,8.25
2023-05-09T18:40:44.268Z,6.88
2023-05-09T18:43:12.777Z,6.63
2023-05-09T18:45:45.162Z,6.80
2023-05-09T18:48:17.498Z,4.78
2023-05-09T18:50:47.237Z,4.75
2023-05-09T18:53:15.592Z,4.40
2023-05-09T18:55:43.896Z,4.45
2023-05-09T18:58:12.426Z,3.53
2023-05-09T19:00:40.956Z,3.15
2023-05-09T19:03:09.568Z,3.10
2023-05-09T19:05:39.438Z,3.13
2023-05-09T19:08:07.723Z,3.05
2023-05-09T19:10:37.961Z,3.50
2023-05-09T19:13:06.510Z,3.95
2023-05-09T19:15:34.992Z,4.88
2023-05-09T19:18:03.883Z,3.78
2023-05-09T19:20:32.447Z,3.60
2023-05-09T19:23:02.149Z,4.32
2023-05-09T19:25:33.803Z,3.72
2023-05-09T19:28:02.052Z,3.70
2023-05-09T19:30:30.373Z,3.75
2023-05-09T19:32:58.703Z,4.20
2023-05-09T19:35:27.334Z,4.80
2023-05-09T19:37:55.755Z,4.80
2023-05-09T19:40:25.634Z,4.90
2023-05-09T19:42:53.900Z,5.57
2023-05-09T19:45:22.507Z,5.70
2023-05-09T19:47:50.888Z,5.38
2023-05-09T19:50:19.784Z,5.45
2023-05-09T19:52:48.055Z,5.38
2023-05-09T19:55:16.388Z,5.95
2023-05-09T19:57:46.043Z,5.97
2023-05-09T20:00:15.779Z,5.80
2023-05-09T20:02:44.168Z,7.00
2023-05-09T20:05:12.397Z,7.30
2023-05-09T20:07:40.868Z,6.63
2023-05-09T20:10:12.798Z,7.10
2023-05-09T20:12:41.522Z,6.65
2023-05-09T20:15:12.719Z,6.60
2023-05-09T20:17:41.131Z,6.63
2023-05-09T20:20:11.168Z,7.47
2023-05-09T20:22:39.697Z,7.60
2023-05-09T20:25:08.933Z,7.65
2023-05-09T20:27:37.416Z,7.03
2023-05-09T20:30:09.519Z,7.32
2023-05-09T20:32:39.255Z,7.45
2023-05-09T20:35:08.664Z,7.05
2023-05-09T20:37:38.609Z,8.13
2023-05-09T20:40:09.275Z,7.75
2023-05-09T20:42:37.902Z,8.40
2023-05-09T20:45:07.871Z,8.45
2023-05-09T20:47:36.433Z,8.80
2023-05-09T20:50:07.516Z,9.18
2023-05-09T20:52:35.869Z,9.90
2023-05-09T20:55:04.652Z,9.27
2023-05-09T20:57:33.081Z,9.95
2023-05-09T21:00:01.371Z,10.55
2023-05-09T21:02:31.237Z,10.02
2023-05-09T21:04:59.810Z,10.38
2023-05-09T21:07:29.805Z,10.88
2023-05-09T21:09:59.170Z,10.82
2023-05-09T21:12:27.878Z,10.50
2023-05-09T21:14:56.414Z,10.90
2023-05-09T21:17:24.886Z,11.60
2023-05-09T21:19:53.361Z,10.20
2023-05-09T21:22:21.925Z,10.82
2023-05-09T21:24:51.910Z,11.05
2023-05-09T21:27:20.537Z,10.63
2023-05-09T21:29:49.460Z,10.48
2023-05-09T21:32:18.263Z,10.32
2023-05-09T21:34:49.588Z,11.75
2023-05-09T21:37:18.039Z,10.65
2023-05-09T21:39:46.394Z,10.50
2023-05-09T21:42:16.591Z,11.40
2023-05-09T21:44:45.548Z,10.93
2023-05-09T21:47:13.937Z,11.50
2023-05-09T21:49:42.356Z,11.30
2023-05-09T21:52:10.612Z,11.75
2023-05-09T21:54:38.925Z,12.13
2023-05-09T21:57:07.339Z,12.52
2023-05-09T21:59:37.930Z,13.30
2023-05-09T22:02:06.291Z,14.73
2023-05-09T22:04:34.493Z,14.20
2023-05-09T22:07:02.712Z,15.82
2023-05-09T22:09:31.196Z,15.40
2023-05-09T22:11:59.701Z,15.88
2023-05-09T22:14:28.068Z,16.50
2023-05-09T22:16:57.704Z,16.70
2023-05-09T22:19:26.154Z,17.45
2023-05-09T22:21:54.367Z,17.17
2023-05-09T22:24:22.871Z,16.92
2023-05-09T22:26:51.594Z,18.45
2023-05-09T22:29:19.887Z,17.50
2023-05-09T22:31:49.103Z,19.02
2023-05-09T22:34:18.917Z,19.27
2023-05-09T22:36:47.502Z,19.55
2023-05-09T22:39:15.914Z,19.75
2023-05-09T22:41:44.999Z,21.15
2023-05-09T22:44:14.310Z,21.27
2023-05-09T22:46:44.488Z,21.90
2023-05-09T22:49:13.958Z,22.63
2023-05-09T22:51:44.320Z,22.42
2023-05-09T22:54:12.853Z,23.50
2023-05-09T22:56:41.325Z,23.38
2023-05-09T22:59:09.598Z,24.33
2023-05-09T23:01:37.991Z,23.35
2023-05-09T23:04:06.488Z,24.83
2023-05-09T23:06:34.887Z,25.35
2023-05-09T23:09:04.923Z,23.40
2023-05-09T23:11:33.148Z,25.65
2023-05-09T23:14:01.463Z,27.55
2023-05-09T23:16:29.920Z,26.08
2023-05-09T23:18:58.316Z,27.27
2023-05-09T23:21:26.770Z,27.67
2023-05-09T23:23:55.203Z,28.95
2023-05-09T23:26:24.953Z,31.30
2023-05-09T23:28:55.190Z,30.63
2023-05-09T23:31:23.517Z,30.45
2023-05-09T23:33:51.800Z,29.25
2023-05-09T23:36:20.070Z,30.60
2023-05-09T23:38:48.548Z,32.03
2023-05-09T23:41:16.839Z,31.08
2023-05-09T23:43:46.559Z,30.20
2023-05-09T23:46:15.088Z,31.98
2023-05-09T23:48:43.650Z,32.28
2023-05-09T23:51:12.030Z,35.47
2023-05-09T23:53:41.150Z,32.95
2023-05-09T23:56:10.506Z,34.50
2023-05-09T23:58:38.721Z,34.83
